Aviation Digital Data Service (ADDS)

Output produced by METARs form (1314 UTC 23 January 2019)
found at http://www.aviationweather.gov/metar/data/
 
Forecast for: FEFF (BANGUI/M'POKO (M, CF)
Text: TAF FEFF 231100Z 2312/2418 26006KT 9999 BKN023 FEW040CB
Forecast period: 1200 UTC 23 January 2019 to 0200 UTC 24 January 2019
Forecast type: FROM: standard forecast or significant change
Winds: from the W (260 degrees) at 7 MPH (6 knots; 3.1 m/s)
Visibility: 6 or more miles 10+ km)
Ceiling: 2300 feet AGL
Clouds: broken clouds at 2300 feet AGL
few clouds at 4000 feet AGL
Weather: no significant weather forecast for this period
Text: PROB30
Forecast period: 1400 to 1800 UTC 23 January 2019
Forecast type: TEMPORARY: The following changes expected for less than half the time period
Visibility: missing
Ceiling: unknown
Clouds: missing
Weather: TS  (thunderstorm)
Text: TEMPO 2314/2318 TS
Forecast period: 0200 to 1800 UTC 24 January 2019
Forecast type: BECOMING: Conditions expected to become as follows by 0400 UTC 24 January 2019
Winds: from the W (260 degrees) at 7 MPH (6 knots; 3.1 m/s)
Visibility: 1.86 miles (2.99 km)
Ceiling: 2300 feet AGL
Clouds: broken clouds at 2300 feet AGL
few clouds at 4000 feet AGL
Weather: BR  (mist)